sensor_id;sensor_type;location;lat;lon;timestamp;P1;durP1;ratioP1;P2;durP2;ratioP2
73699;SDS011;62005;50.082;8.988;2023-08-08T00:01:11;3.07;;;0.83;;
73699;SDS011;62005;50.082;8.988;2023-08-08T00:03:36;1.50;;;0.40;;
73699;SDS011;62005;50.082;8.988;2023-08-08T00:06:02;3.53;;;0.77;;
73699;SDS011;62005;50.082;8.988;2023-08-08T00:08:27;2.88;;;0.93;;
73699;SDS011;62005;50.082;8.988;2023-08-08T00:10:52;5.25;;;1.02;;
73699;SDS011;62005;50.082;8.988;2023-08-08T00:13:18;2.13;;;0.70;;
73699;SDS011;62005;50.082;8.988;2023-08-08T00:15:43;4.53;;;0.80;;
73699;SDS011;62005;50.082;8.988;2023-08-08T00:18:08;1.48;;;0.45;;
73699;SDS011;62005;50.082;8.988;2023-08-08T00:20:34;1.85;;;0.80;;
73699;SDS011;62005;50.082;8.988;2023-08-08T00:22:59;1.80;;;0.60;;
73699;SDS011;62005;50.082;8.988;2023-08-08T00:25:25;2.80;;;0.82;;
73699;SDS011;62005;50.082;8.988;2023-08-08T00:27:50;2.97;;;0.85;;
73699;SDS011;62005;50.082;8.988;2023-08-08T00:30:16;2.47;;;0.80;;
73699;SDS011;62005;50.082;8.988;2023-08-08T00:32:41;3.42;;;1.48;;
73699;SDS011;62005;50.082;8.988;2023-08-08T00:35:07;2.17;;;0.80;;
73699;SDS011;62005;50.082;8.988;2023-08-08T00:37:32;1.98;;;0.68;;
73699;SDS011;62005;50.082;8.988;2023-08-08T00:39:58;4.35;;;0.80;;
73699;SDS011;62005;50.082;8.988;2023-08-08T00:42:23;3.45;;;0.68;;
73699;SDS011;62005;50.082;8.988;2023-08-08T00:44:48;2.43;;;0.80;;
73699;SDS011;62005;50.082;8.988;2023-08-08T00:47:14;4.23;;;0.93;;
73699;SDS011;62005;50.082;8.988;2023-08-08T00:49:39;1.55;;;0.63;;
73699;SDS011;62005;50.082;8.988;2023-08-08T00:52:08;5.07;;;0.98;;
73699;SDS011;62005;50.082;8.988;2023-08-08T00:54:33;2.28;;;0.63;;
73699;SDS011;62005;50.082;8.988;2023-08-08T00:56:58;2.47;;;0.80;;
73699;SDS011;62005;50.082;8.988;2023-08-08T00:59:24;5.53;;;1.07;;
73699;SDS011;62005;50.082;8.988;2023-08-08T01:01:50;4.45;;;1.05;;
73699;SDS011;62005;50.082;8.988;2023-08-08T01:04:16;2.38;;;0.77;;
73699;SDS011;62005;50.082;8.988;2023-08-08T01:06:43;4.55;;;0.80;;
73699;SDS011;62005;50.082;8.988;2023-08-08T01:09:21;2.72;;;0.90;;
73699;SDS011;62005;50.082;8.988;2023-08-08T01:11:52;2.85;;;1.13;;
73699;SDS011;62005;50.082;8.988;2023-08-08T01:14:18;3.38;;;1.10;;
73699;SDS011;62005;50.082;8.988;2023-08-08T01:16:45;1.90;;;0.73;;
73699;SDS011;62005;50.082;8.988;2023-08-08T01:19:11;2.55;;;0.68;;
73699;SDS011;62005;50.082;8.988;2023-08-08T01:21:43;5.50;;;0.70;;
73699;SDS011;62005;50.082;8.988;2023-08-08T01:24:31;1.98;;;0.85;;
73699;SDS011;62005;50.082;8.988;2023-08-08T01:26:58;4.07;;;0.60;;
73699;SDS011;62005;50.082;8.988;2023-08-08T01:31:50;2.15;;;0.73;;
73699;SDS011;62005;50.082;8.988;2023-08-08T01:34:15;1.60;;;0.60;;
73699;SDS011;62005;50.082;8.988;2023-08-08T01:39:22;3.03;;;0.90;;
73699;SDS011;62005;50.082;8.988;2023-08-08T01:41:51;1.65;;;0.73;;
73699;SDS011;62005;50.082;8.988;2023-08-08T01:44:18;3.95;;;0.68;;
73699;SDS011;62005;50.082;8.988;2023-08-08T01:46:45;3.08;;;0.60;;
73699;SDS011;62005;50.082;8.988;2023-08-08T01:49:10;5.63;;;0.90;;
73699;SDS011;62005;50.082;8.988;2023-08-08T01:51:36;3.15;;;0.68;;
73699;SDS011;62005;50.082;8.988;2023-08-08T01:54:01;2.70;;;1.20;;
73699;SDS011;62005;50.082;8.988;2023-08-08T01:56:28;3.95;;;0.82;;
73699;SDS011;62005;50.082;8.988;2023-08-08T01:58:53;2.70;;;1.07;;
73699;SDS011;62005;50.082;8.988;2023-08-08T02:01:18;1.83;;;0.53;;
73699;SDS011;62005;50.082;8.988;2023-08-08T02:03:44;1.92;;;0.75;;
73699;SDS011;62005;50.082;8.988;2023-08-08T02:06:09;2.27;;;1.00;;
73699;SDS011;62005;50.082;8.988;2023-08-08T02:08:34;3.17;;;0.77;;
73699;SDS011;62005;50.082;8.988;2023-08-08T02:11:00;3.83;;;0.70;;
73699;SDS011;62005;50.082;8.988;2023-08-08T02:13:25;2.73;;;0.63;;
73699;SDS011;62005;50.082;8.988;2023-08-08T02:15:50;2.80;;;0.77;;
73699;SDS011;62005;50.082;8.988;2023-08-08T02:20:43;1.80;;;0.70;;
73699;SDS011;62005;50.082;8.988;2023-08-08T02:23:08;1.30;;;0.50;;
73699;SDS011;62005;50.082;8.988;2023-08-08T02:25:33;2.43;;;0.57;;
73699;SDS011;62005;50.082;8.988;2023-08-08T02:27:59;2.80;;;0.40;;
73699;SDS011;62005;50.082;8.988;2023-08-08T02:30:24;1.97;;;0.77;;
73699;SDS011;62005;50.082;8.988;2023-08-08T02:32:49;2.70;;;0.52;;
73699;SDS011;62005;50.082;8.988;2023-08-08T02:35:15;2.03;;;0.57;;
73699;SDS011;62005;50.082;8.988;2023-08-08T02:37:40;1.73;;;0.55;;
73699;SDS011;62005;50.082;8.988;2023-08-08T02:40:06;2.80;;;0.67;;
73699;SDS011;62005;50.082;8.988;2023-08-08T02:42:33;1.85;;;0.65;;
73699;SDS011;62005;50.082;8.988;2023-08-08T02:44:58;4.28;;;0.75;;
73699;SDS011;62005;50.082;8.988;2023-08-08T02:47:23;6.33;;;0.87;;
73699;SDS011;62005;50.082;8.988;2023-08-08T02:49:49;2.08;;;0.60;;
73699;SDS011;62005;50.082;8.988;2023-08-08T02:52:15;1.83;;;0.47;;
73699;SDS011;62005;50.082;8.988;2023-08-08T02:54:40;1.63;;;0.63;;
73699;SDS011;62005;50.082;8.988;2023-08-08T02:57:06;2.57;;;0.40;;
73699;SDS011;62005;50.082;8.988;2023-08-08T02:59:31;1.77;;;0.57;;
73699;SDS011;62005;50.082;8.988;2023-08-08T03:01:57;4.43;;;0.60;;
73699;SDS011;62005;50.082;8.988;2023-08-08T03:04:22;3.17;;;0.50;;
73699;SDS011;62005;50.082;8.988;2023-08-08T03:06:47;3.22;;;0.70;;
73699;SDS011;62005;50.082;8.988;2023-08-08T03:09:13;1.30;;;0.50;;
73699;SDS011;62005;50.082;8.988;2023-08-08T03:11:38;2.00;;;0.60;;
73699;SDS011;62005;50.082;8.988;2023-08-08T03:14:06;2.97;;;0.75;;
73699;SDS011;62005;50.082;8.988;2023-08-08T03:16:32;2.15;;;0.80;;
73699;SDS011;62005;50.082;8.988;2023-08-08T03:18:57;4.37;;;0.73;;
73699;SDS011;62005;50.082;8.988;2023-08-08T03:21:23;5.55;;;0.70;;
73699;SDS011;62005;50.082;8.988;2023-08-08T03:23:49;2.50;;;0.70;;
73699;SDS011;62005;50.082;8.988;2023-08-08T03:26:14;2.97;;;0.60;;
73699;SDS011;62005;50.082;8.988;2023-08-08T03:28:39;5.47;;;0.90;;
73699;SDS011;62005;50.082;8.988;2023-08-08T03:31:05;3.90;;;1.00;;
73699;SDS011;62005;50.082;8.988;2023-08-08T03:33:30;4.30;;;0.70;;
73699;SDS011;62005;50.082;8.988;2023-08-08T03:35:56;8.10;;;0.70;;
73699;SDS011;62005;50.082;8.988;2023-08-08T03:38:21;2.03;;;0.60;;
73699;SDS011;62005;50.082;8.988;2023-08-08T03:40:46;2.15;;;0.70;;
73699;SDS011;62005;50.082;8.988;2023-08-08T03:43:12;2.77;;;0.50;;
73699;SDS011;62005;50.082;8.988;2023-08-08T03:45:38;1.67;;;0.80;;
73699;SDS011;62005;50.082;8.988;2023-08-08T03:48:04;1.50;;;0.60;;
73699;SDS011;62005;50.082;8.988;2023-08-08T03:50:30;4.20;;;0.73;;
73699;SDS011;62005;50.082;8.988;2023-08-08T03:52:55;1.93;;;0.70;;
73699;SDS011;62005;50.082;8.988;2023-08-08T03:55:20;2.43;;;0.60;;
73699;SDS011;62005;50.082;8.988;2023-08-08T03:57:46;2.47;;;0.68;;
73699;SDS011;62005;50.082;8.988;2023-08-08T04:00:11;2.50;;;0.53;;
73699;SDS011;62005;50.082;8.988;2023-08-08T04:02:37;3.70;;;0.80;;
73699;SDS011;62005;50.082;8.988;2023-08-08T04:05:02;2.90;;;0.77;;
73699;SDS011;62005;50.082;8.988;2023-08-08T04:07:27;3.50;;;0.95;;
73699;SDS011;62005;50.082;8.988;2023-08-08T04:09:53;3.57;;;0.80;;
73699;SDS011;62005;50.082;8.988;2023-08-08T04:12:18;5.70;;;0.60;;
73699;SDS011;62005;50.082;8.988;2023-08-08T04:14:43;2.87;;;0.93;;
73699;SDS011;62005;50.082;8.988;2023-08-08T04:17:09;3.30;;;0.40;;
73699;SDS011;62005;50.082;8.988;2023-08-08T04:19:34;2.47;;;0.60;;
73699;SDS011;62005;50.082;8.988;2023-08-08T04:21:59;2.37;;;0.53;;
73699;SDS011;62005;50.082;8.988;2023-08-08T04:24:25;4.73;;;0.70;;
73699;SDS011;62005;50.082;8.988;2023-08-08T04:26:50;3.40;;;0.57;;
73699;SDS011;62005;50.082;8.988;2023-08-08T04:29:15;1.50;;;0.50;;
73699;SDS011;62005;50.082;8.988;2023-08-08T04:31:41;1.43;;;0.50;;
73699;SDS011;62005;50.082;8.988;2023-08-08T04:34:06;2.20;;;0.70;;
73699;SDS011;62005;50.082;8.988;2023-08-08T04:36:31;4.37;;;0.40;;
73699;SDS011;62005;50.082;8.988;2023-08-08T04:38:57;2.67;;;0.47;;
73699;SDS011;62005;50.082;8.988;2023-08-08T04:41:22;1.77;;;0.70;;
73699;SDS011;62005;50.082;8.988;2023-08-08T04:43:48;2.38;;;0.43;;
73699;SDS011;62005;50.082;8.988;2023-08-08T04:46:13;1.93;;;0.57;;
73699;SDS011;62005;50.082;8.988;2023-08-08T04:48:39;2.57;;;0.70;;
73699;SDS011;62005;50.082;8.988;2023-08-08T04:51:04;1.60;;;0.70;;
73699;SDS011;62005;50.082;8.988;2023-08-08T04:53:30;2.47;;;0.45;;
73699;SDS011;62005;50.082;8.988;2023-08-08T04:55:55;2.33;;;0.90;;
73699;SDS011;62005;50.082;8.988;2023-08-08T04:58:20;2.33;;;0.55;;
73699;SDS011;62005;50.082;8.988;2023-08-08T05:00:46;1.97;;;0.50;;
73699;SDS011;62005;50.082;8.988;2023-08-08T05:03:11;2.10;;;0.70;;
73699;SDS011;62005;50.082;8.988;2023-08-08T05:05:36;1.83;;;0.60;;
73699;SDS011;62005;50.082;8.988;2023-08-08T05:08:02;1.90;;;0.70;;
73699;SDS011;62005;50.082;8.988;2023-08-08T05:10:27;2.50;;;0.60;;
73699;SDS011;62005;50.082;8.988;2023-08-08T05:12:53;2.45;;;0.40;;
73699;SDS011;62005;50.082;8.988;2023-08-08T05:15:18;4.63;;;0.63;;
73699;SDS011;62005;50.082;8.988;2023-08-08T05:17:44;3.30;;;0.33;;
73699;SDS011;62005;50.082;8.988;2023-08-08T05:20:09;1.88;;;0.40;;
73699;SDS011;62005;50.082;8.988;2023-08-08T05:22:35;1.30;;;0.50;;
73699;SDS011;62005;50.082;8.988;2023-08-08T05:25:01;1.67;;;0.57;;
73699;SDS011;62005;50.082;8.988;2023-08-08T05:27:26;1.42;;;0.43;;
73699;SDS011;62005;50.082;8.988;2023-08-08T05:29:52;3.47;;;0.57;;
73699;SDS011;62005;50.082;8.988;2023-08-08T05:32:17;4.37;;;0.30;;
73699;SDS011;62005;50.082;8.988;2023-08-08T05:34:42;1.03;;;0.13;;
73699;SDS011;62005;50.082;8.988;2023-08-08T05:37:08;3.17;;;0.30;;
73699;SDS011;62005;50.082;8.988;2023-08-08T05:39:33;2.73;;;0.30;;
73699;SDS011;62005;50.082;8.988;2023-08-08T05:41:58;1.73;;;0.50;;
73699;SDS011;62005;50.082;8.988;2023-08-08T05:44:24;2.40;;;0.43;;
73699;SDS011;62005;50.082;8.988;2023-08-08T05:46:49;2.80;;;0.20;;
73699;SDS011;62005;50.082;8.988;2023-08-08T05:49:14;1.15;;;0.22;;
73699;SDS011;62005;50.082;8.988;2023-08-08T05:51:40;1.37;;;0.40;;
73699;SDS011;62005;50.082;8.988;2023-08-08T05:54:05;2.25;;;0.25;;
73699;SDS011;62005;50.082;8.988;2023-08-08T05:56:35;1.20;;;0.20;;
73699;SDS011;62005;50.082;8.988;2023-08-08T05:59:01;2.25;;;0.20;;
73699;SDS011;62005;50.082;8.988;2023-08-08T06:01:26;1.03;;;0.10;;
73699;SDS011;62005;50.082;8.988;2023-08-08T06:03:52;3.47;;;0.10;;
73699;SDS011;62005;50.082;8.988;2023-08-08T06:06:18;2.65;;;0.10;;
73699;SDS011;62005;50.082;8.988;2023-08-08T06:08:43;1.70;;;0.10;;
73699;SDS011;62005;50.082;8.988;2023-08-08T06:11:09;3.25;;;0.10;;
73699;SDS011;62005;50.082;8.988;2023-08-08T06:13:34;1.80;;;0.10;;
73699;SDS011;62005;50.082;8.988;2023-08-08T06:15:59;1.30;;;0.13;;
73699;SDS011;62005;50.082;8.988;2023-08-08T06:20:51;0.30;;;0.00;;
73699;SDS011;62005;50.082;8.988;2023-08-08T06:23:16;0.70;;;0.10;;
73699;SDS011;62005;50.082;8.988;2023-08-08T06:25:42;1.10;;;0.20;;
73699;SDS011;62005;50.082;8.988;2023-08-08T06:28:07;1.23;;;0.00;;
73699;SDS011;62005;50.082;8.988;2023-08-08T06:30:32;0.47;;;0.00;;
73699;SDS011;62005;50.082;8.988;2023-08-08T06:32:58;1.50;;;0.10;;
73699;SDS011;62005;50.082;8.988;2023-08-08T06:35:23;1.67;;;0.17;;
73699;SDS011;62005;50.082;8.988;2023-08-08T06:37:49;2.40;;;0.10;;
73699;SDS011;62005;50.082;8.988;2023-08-08T06:40:14;0.57;;;0.00;;
73699;SDS011;62005;50.082;8.988;2023-08-08T06:42:39;4.20;;;0.15;;
73699;SDS011;62005;50.082;8.988;2023-08-08T06:45:05;1.23;;;0.10;;
73699;SDS011;62005;50.082;8.988;2023-08-08T06:47:31;2.20;;;0.20;;
73699;SDS011;62005;50.082;8.988;2023-08-08T06:49:56;1.38;;;0.13;;
73699;SDS011;62005;50.082;8.988;2023-08-08T06:52:21;0.87;;;0.10;;
73699;SDS011;62005;50.082;8.988;2023-08-08T06:54:47;4.40;;;0.30;;
73699;SDS011;62005;50.082;8.988;2023-08-08T06:57:12;4.30;;;0.38;;
73699;SDS011;62005;50.082;8.988;2023-08-08T06:59:38;0.83;;;0.10;;
73699;SDS011;62005;50.082;8.988;2023-08-08T07:02:03;1.17;;;0.10;;
73699;SDS011;62005;50.082;8.988;2023-08-08T07:04:29;2.80;;;0.40;;
73699;SDS011;62005;50.082;8.988;2023-08-08T07:06:54;1.52;;;0.10;;
73699;SDS011;62005;50.082;8.988;2023-08-08T07:09:19;1.30;;;0.10;;
73699;SDS011;62005;50.082;8.988;2023-08-08T07:11:46;2.03;;;0.10;;
73699;SDS011;62005;50.082;8.988;2023-08-08T07:14:11;0.50;;;0.10;;
73699;SDS011;62005;50.082;8.988;2023-08-08T07:16:36;2.25;;;0.17;;
73699;SDS011;62005;50.082;8.988;2023-08-08T07:19:02;1.85;;;0.10;;
73699;SDS011;62005;50.082;8.988;2023-08-08T07:21:28;0.97;;;0.10;;
73699;SDS011;62005;50.082;8.988;2023-08-08T07:23:54;1.55;;;0.00;;
73699;SDS011;62005;50.082;8.988;2023-08-08T07:26:20;2.95;;;0.10;;
73699;SDS011;62005;50.082;8.988;2023-08-08T07:28:47;3.20;;;0.20;;
73699;SDS011;62005;50.082;8.988;2023-08-08T07:31:12;2.13;;;0.40;;
73699;SDS011;62005;50.082;8.988;2023-08-08T07:33:37;1.52;;;0.25;;
73699;SDS011;62005;50.082;8.988;2023-08-08T07:36:03;0.80;;;0.10;;
73699;SDS011;62005;50.082;8.988;2023-08-08T07:38:29;1.17;;;0.13;;
73699;SDS011;62005;50.082;8.988;2023-08-08T07:40:54;2.35;;;0.15;;
73699;SDS011;62005;50.082;8.988;2023-08-08T07:43:19;1.43;;;0.10;;
73699;SDS011;62005;50.082;8.988;2023-08-08T07:45:45;0.75;;;0.05;;
73699;SDS011;62005;50.082;8.988;2023-08-08T07:48:11;1.42;;;0.10;;
73699;SDS011;62005;50.082;8.988;2023-08-08T07:50:37;1.73;;;0.00;;
73699;SDS011;62005;50.082;8.988;2023-08-08T07:53:02;2.67;;;0.07;;
73699;SDS011;62005;50.082;8.988;2023-08-08T07:55:27;2.85;;;0.40;;
73699;SDS011;62005;50.082;8.988;2023-08-08T07:57:53;1.58;;;0.10;;
73699;SDS011;62005;50.082;8.988;2023-08-08T08:00:18;1.03;;;0.00;;
73699;SDS011;62005;50.082;8.988;2023-08-08T08:02:44;1.75;;;0.10;;
73699;SDS011;62005;50.082;8.988;2023-08-08T08:07:36;2.17;;;0.20;;
73699;SDS011;62005;50.082;8.988;2023-08-08T08:10:03;1.20;;;0.10;;
73699;SDS011;62005;50.082;8.988;2023-08-08T08:12:30;0.85;;;0.00;;
73699;SDS011;62005;50.082;8.988;2023-08-08T08:14:56;4.57;;;0.17;;
73699;SDS011;62005;50.082;8.988;2023-08-08T08:17:22;2.50;;;0.20;;
73699;SDS011;62005;50.082;8.988;2023-08-08T08:19:47;1.30;;;0.00;;
73699;SDS011;62005;50.082;8.988;2023-08-08T08:22:13;1.90;;;0.10;;
73699;SDS011;62005;50.082;8.988;2023-08-08T08:24:38;2.10;;;0.00;;
73699;SDS011;62005;50.082;8.988;2023-08-08T08:27:03;1.33;;;0.10;;
73699;SDS011;62005;50.082;8.988;2023-08-08T08:29:29;2.58;;;0.00;;
73699;SDS011;62005;50.082;8.988;2023-08-08T08:31:56;0.98;;;0.00;;
73699;SDS011;62005;50.082;8.988;2023-08-08T08:34:24;1.77;;;0.10;;
73699;SDS011;62005;50.082;8.988;2023-08-08T08:36:49;0.93;;;0.03;;
73699;SDS011;62005;50.082;8.988;2023-08-08T08:39:14;3.40;;;0.00;;
73699;SDS011;62005;50.082;8.988;2023-08-08T08:41:40;1.63;;;0.10;;
73699;SDS011;62005;50.082;8.988;2023-08-08T08:44:05;1.00;;;0.10;;
73699;SDS011;62005;50.082;8.988;2023-08-08T08:46:34;1.63;;;0.10;;
73699;SDS011;62005;50.082;8.988;2023-08-08T08:49:01;2.92;;;0.10;;
73699;SDS011;62005;50.082;8.988;2023-08-08T08:51:30;1.20;;;0.10;;
73699;SDS011;62005;50.082;8.988;2023-08-08T08:53:56;2.77;;;0.00;;
73699;SDS011;62005;50.082;8.988;2023-08-08T08:56:23;3.35;;;0.13;;
73699;SDS011;62005;50.082;8.988;2023-08-08T08:58:49;0.93;;;0.00;;
73699;SDS011;62005;50.082;8.988;2023-08-08T09:01:14;1.83;;;0.10;;
73699;SDS011;62005;50.082;8.988;2023-08-08T09:03:43;1.27;;;0.10;;
73699;SDS011;62005;50.082;8.988;2023-08-08T09:06:09;0.77;;;0.08;;
73699;SDS011;62005;50.082;8.988;2023-08-08T09:08:36;0.68;;;0.10;;
73699;SDS011;62005;50.082;8.988;2023-08-08T09:11:02;0.70;;;0.00;;
73699;SDS011;62005;50.082;8.988;2023-08-08T09:13:32;1.95;;;0.10;;
73699;SDS011;62005;50.082;8.988;2023-08-08T09:16:01;2.05;;;0.10;;
73699;SDS011;62005;50.082;8.988;2023-08-08T09:18:26;2.57;;;0.07;;
73699;SDS011;62005;50.082;8.988;2023-08-08T09:20:51;2.27;;;0.10;;
73699;SDS011;62005;50.082;8.988;2023-08-08T09:23:17;0.80;;;0.00;;
73699;SDS011;62005;50.082;8.988;2023-08-08T09:25:42;1.30;;;0.10;;
73699;SDS011;62005;50.082;8.988;2023-08-08T09:28:07;2.30;;;0.03;;
73699;SDS011;62005;50.082;8.988;2023-08-08T09:30:33;1.50;;;0.00;;
73699;SDS011;62005;50.082;8.988;2023-08-08T09:33:01;1.77;;;0.08;;
73699;SDS011;62005;50.082;8.988;2023-08-08T09:35:28;1.88;;;0.10;;
73699;SDS011;62005;50.082;8.988;2023-08-08T09:37:54;0.93;;;0.10;;
73699;SDS011;62005;50.082;8.988;2023-08-08T09:40:20;3.83;;;0.10;;
73699;SDS011;62005;50.082;8.988;2023-08-08T09:42:46;1.75;;;0.08;;
73699;SDS011;62005;50.082;8.988;2023-08-08T09:45:12;1.35;;;0.20;;
73699;SDS011;62005;50.082;8.988;2023-08-08T09:47:37;2.10;;;0.10;;
73699;SDS011;62005;50.082;8.988;2023-08-08T09:50:03;1.42;;;0.08;;
73699;SDS011;62005;50.082;8.988;2023-08-08T09:52:30;0.73;;;0.10;;
73699;SDS011;62005;50.082;8.988;2023-08-08T09:54:57;3.03;;;0.10;;
73699;SDS011;62005;50.082;8.988;2023-08-08T09:57:23;1.40;;;0.00;;
73699;SDS011;62005;50.082;8.988;2023-08-08T10:02:16;3.58;;;0.10;;
73699;SDS011;62005;50.082;8.988;2023-08-08T10:04:43;1.85;;;0.10;;
73699;SDS011;62005;50.082;8.988;2023-08-08T10:07:10;1.30;;;0.17;;
73699;SDS011;62005;50.082;8.988;2023-08-08T10:09:35;1.70;;;0.10;;
73699;SDS011;62005;50.082;8.988;2023-08-08T10:12:02;2.58;;;0.10;;
73699;SDS011;62005;50.082;8.988;2023-08-08T10:14:30;1.98;;;0.10;;
73699;SDS011;62005;50.082;8.988;2023-08-08T10:16:57;1.27;;;0.10;;
73699;SDS011;62005;50.082;8.988;2023-08-08T10:19:22;1.92;;;0.03;;
73699;SDS011;62005;50.082;8.988;2023-08-08T10:21:54;2.25;;;0.10;;
73699;SDS011;62005;50.082;8.988;2023-08-08T10:24:22;2.25;;;0.10;;
73699;SDS011;62005;50.082;8.988;2023-08-08T10:26:54;1.57;;;0.10;;
73699;SDS011;62005;50.082;8.988;2023-08-08T10:29:24;0.95;;;0.00;;
73699;SDS011;62005;50.082;8.988;2023-08-08T10:31:53;1.88;;;0.10;;
73699;SDS011;62005;50.082;8.988;2023-08-08T10:34:44;0.85;;;0.10;;
73699;SDS011;62005;50.082;8.988;2023-08-08T10:37:15;0.95;;;0.10;;
73699;SDS011;62005;50.082;8.988;2023-08-08T10:40:16;1.75;;;0.15;;
73699;SDS011;62005;50.082;8.988;2023-08-08T10:42:42;3.30;;;1.33;;
73699;SDS011;62005;50.082;8.988;2023-08-08T10:45:09;2.65;;;0.13;;
73699;SDS011;62005;50.082;8.988;2023-08-08T10:47:37;0.60;;;0.10;;
73699;SDS011;62005;50.082;8.988;2023-08-08T10:52:30;1.65;;;0.10;;
73699;SDS011;62005;50.082;8.988;2023-08-08T10:54:55;1.58;;;0.10;;
73699;SDS011;62005;50.082;8.988;2023-08-08T10:57:24;1.67;;;0.10;;
73699;SDS011;62005;50.082;8.988;2023-08-08T10:59:50;1.15;;;0.10;;
73699;SDS011;62005;50.082;8.988;2023-08-08T11:02:16;3.20;;;0.10;;
73699;SDS011;62005;50.082;8.988;2023-08-08T11:04:41;1.48;;;0.10;;
73699;SDS011;62005;50.082;8.988;2023-08-08T11:07:07;3.13;;;0.10;;
73699;SDS011;62005;50.082;8.988;2023-08-08T11:09:34;2.53;;;0.20;;
73699;SDS011;62005;50.082;8.988;2023-08-08T11:11:59;1.17;;;0.00;;
73699;SDS011;62005;50.082;8.988;2023-08-08T11:14:25;1.70;;;0.20;;
73699;SDS011;62005;50.082;8.988;2023-08-08T11:16:51;1.25;;;0.15;;
73699;SDS011;62005;50.082;8.988;2023-08-08T11:19:17;2.30;;;0.10;;
73699;SDS011;62005;50.082;8.988;2023-08-08T11:21:44;1.05;;;0.10;;
73699;SDS011;62005;50.082;8.988;2023-08-08T11:26:37;2.40;;;0.10;;
73699;SDS011;62005;50.082;8.988;2023-08-08T11:29:04;4.72;;;0.10;;
73699;SDS011;62005;50.082;8.988;2023-08-08T11:31:33;1.50;;;0.15;;
73699;SDS011;62005;50.082;8.988;2023-08-08T11:36:31;2.83;;;0.20;;
73699;SDS011;62005;50.082;8.988;2023-08-08T11:41:25;3.45;;;0.40;;
73699;SDS011;62005;50.082;8.988;2023-08-08T11:43:51;1.40;;;0.20;;
73699;SDS011;62005;50.082;8.988;2023-08-08T11:46:18;1.92;;;0.10;;
73699;SDS011;62005;50.082;8.988;2023-08-08T11:48:46;1.80;;;0.10;;
73699;SDS011;62005;50.082;8.988;2023-08-08T11:51:13;2.08;;;0.10;;
73699;SDS011;62005;50.082;8.988;2023-08-08T11:53:47;1.83;;;0.38;;
73699;SDS011;62005;50.082;8.988;2023-08-08T11:56:17;1.13;;;0.10;;
73699;SDS011;62005;50.082;8.988;2023-08-08T11:58:47;2.78;;;0.10;;
73699;SDS011;62005;50.082;8.988;2023-08-08T12:01:16;2.88;;;0.30;;
73699;SDS011;62005;50.082;8.988;2023-08-08T12:03:45;1.25;;;0.10;;
73699;SDS011;62005;50.082;8.988;2023-08-08T12:06:14;2.25;;;0.10;;
73699;SDS011;62005;50.082;8.988;2023-08-08T12:08:41;2.03;;;0.20;;
73699;SDS011;62005;50.082;8.988;2023-08-08T12:11:10;1.52;;;0.13;;
73699;SDS011;62005;50.082;8.988;2023-08-08T12:16:06;2.33;;;0.10;;
73699;SDS011;62005;50.082;8.988;2023-08-08T12:18:36;1.80;;;0.10;;
73699;SDS011;62005;50.082;8.988;2023-08-08T12:21:03;1.35;;;0.20;;
73699;SDS011;62005;50.082;8.988;2023-08-08T12:25:56;1.63;;;0.10;;
73699;SDS011;62005;50.082;8.988;2023-08-08T12:28:22;11.38;;;0.20;;
73699;SDS011;62005;50.082;8.988;2023-08-08T12:30:48;1.75;;;0.20;;
73699;SDS011;62005;50.082;8.988;2023-08-08T12:33:13;1.93;;;0.30;;
73699;SDS011;62005;50.082;8.988;2023-08-08T12:35:38;1.30;;;0.10;;
73699;SDS011;62005;50.082;8.988;2023-08-08T12:38:04;2.03;;;0.10;;
73699;SDS011;62005;50.082;8.988;2023-08-08T12:40:29;2.35;;;0.10;;
73699;SDS011;62005;50.082;8.988;2023-08-08T12:42:55;1.40;;;0.10;;
73699;SDS011;62005;50.082;8.988;2023-08-08T12:45:20;1.58;;;0.10;;
73699;SDS011;62005;50.082;8.988;2023-08-08T12:47:45;1.10;;;0.10;;
73699;SDS011;62005;50.082;8.988;2023-08-08T12:50:11;2.40;;;0.20;;
73699;SDS011;62005;50.082;8.988;2023-08-08T12:52:37;3.50;;;0.10;;
73699;SDS011;62005;50.082;8.988;2023-08-08T12:55:03;1.00;;;0.20;;
73699;SDS011;62005;50.082;8.988;2023-08-08T12:57:29;1.98;;;0.10;;
73699;SDS011;62005;50.082;8.988;2023-08-08T12:59:54;1.67;;;0.08;;
73699;SDS011;62005;50.082;8.988;2023-08-08T13:02:20;1.45;;;0.13;;
73699;SDS011;62005;50.082;8.988;2023-08-08T13:04:45;0.80;;;0.10;;
73699;SDS011;62005;50.082;8.988;2023-08-08T13:07:11;2.55;;;0.15;;
73699;SDS011;62005;50.082;8.988;2023-08-08T13:09:36;2.75;;;0.10;;
73699;SDS011;62005;50.082;8.988;2023-08-08T13:12:03;1.92;;;0.20;;
73699;SDS011;62005;50.082;8.988;2023-08-08T13:14:28;2.55;;;0.20;;
73699;SDS011;62005;50.082;8.988;2023-08-08T13:16:54;3.27;;;0.10;;
73699;SDS011;62005;50.082;8.988;2023-08-08T13:19:19;1.23;;;0.13;;
73699;SDS011;62005;50.082;8.988;2023-08-08T13:21:46;1.77;;;0.15;;
73699;SDS011;62005;50.082;8.988;2023-08-08T13:24:12;1.00;;;0.10;;
73699;SDS011;62005;50.082;8.988;2023-08-08T13:26:38;2.85;;;0.10;;
73699;SDS011;62005;50.082;8.988;2023-08-08T13:29:04;1.65;;;0.00;;
73699;SDS011;62005;50.082;8.988;2023-08-08T13:31:29;1.47;;;0.10;;
73699;SDS011;62005;50.082;8.988;2023-08-08T13:33:54;1.17;;;0.20;;
73699;SDS011;62005;50.082;8.988;2023-08-08T13:36:20;0.53;;;0.10;;
73699;SDS011;62005;50.082;8.988;2023-08-08T13:38:45;1.47;;;0.10;;
73699;SDS011;62005;50.082;8.988;2023-08-08T13:41:10;1.47;;;0.20;;
73699;SDS011;62005;50.082;8.988;2023-08-08T13:43:36;3.43;;;0.10;;
73699;SDS011;62005;50.082;8.988;2023-08-08T13:46:01;1.07;;;0.10;;
73699;SDS011;62005;50.082;8.988;2023-08-08T13:48:29;3.33;;;0.30;;
73699;SDS011;62005;50.082;8.988;2023-08-08T13:50:54;0.87;;;0.10;;
73699;SDS011;62005;50.082;8.988;2023-08-08T13:53:19;3.05;;;0.10;;
73699;SDS011;62005;50.082;8.988;2023-08-08T13:55:45;1.50;;;0.20;;
73699;SDS011;62005;50.082;8.988;2023-08-08T13:58:11;2.92;;;0.10;;
73699;SDS011;62005;50.082;8.988;2023-08-08T14:00:36;2.33;;;0.20;;
73699;SDS011;62005;50.082;8.988;2023-08-08T14:03:02;3.03;;;0.20;;
73699;SDS011;62005;50.082;8.988;2023-08-08T14:05:27;3.80;;;0.30;;
73699;SDS011;62005;50.082;8.988;2023-08-08T14:07:53;31.20;;;3.38;;
73699;SDS011;62005;50.082;8.988;2023-08-08T14:10:19;3.70;;;0.10;;
73699;SDS011;62005;50.082;8.988;2023-08-08T14:12:44;1.90;;;0.07;;
73699;SDS011;62005;50.082;8.988;2023-08-08T14:15:10;1.23;;;0.03;;
73699;SDS011;62005;50.082;8.988;2023-08-08T14:17:35;1.17;;;0.10;;
73699;SDS011;62005;50.082;8.988;2023-08-08T14:20:01;0.98;;;0.10;;
73699;SDS011;62005;50.082;8.988;2023-08-08T14:22:26;1.55;;;0.10;;
73699;SDS011;62005;50.082;8.988;2023-08-08T14:24:52;1.37;;;0.10;;
73699;SDS011;62005;50.082;8.988;2023-08-08T14:27:17;0.80;;;0.10;;
73699;SDS011;62005;50.082;8.988;2023-08-08T14:29:42;1.83;;;0.10;;
73699;SDS011;62005;50.082;8.988;2023-08-08T14:32:08;1.95;;;0.10;;
73699;SDS011;62005;50.082;8.988;2023-08-08T14:34:33;0.80;;;0.10;;
73699;SDS011;62005;50.082;8.988;2023-08-08T14:36:59;4.05;;;0.20;;
73699;SDS011;62005;50.082;8.988;2023-08-08T14:39:26;2.42;;;0.10;;
73699;SDS011;62005;50.082;8.988;2023-08-08T14:41:51;1.70;;;0.10;;
73699;SDS011;62005;50.082;8.988;2023-08-08T14:44:17;3.10;;;0.10;;
73699;SDS011;62005;50.082;8.988;2023-08-08T14:46:43;2.42;;;0.20;;
73699;SDS011;62005;50.082;8.988;2023-08-08T14:49:08;1.67;;;0.05;;
73699;SDS011;62005;50.082;8.988;2023-08-08T14:51:34;1.67;;;0.10;;
73699;SDS011;62005;50.082;8.988;2023-08-08T14:54:00;0.80;;;0.10;;
73699;SDS011;62005;50.082;8.988;2023-08-08T14:56:26;1.92;;;0.10;;
73699;SDS011;62005;50.082;8.988;2023-08-08T14:58:52;3.80;;;1.23;;
73699;SDS011;62005;50.082;8.988;2023-08-08T15:01:17;3.33;;;0.73;;
73699;SDS011;62005;50.082;8.988;2023-08-08T15:03:42;2.20;;;0.00;;
73699;SDS011;62005;50.082;8.988;2023-08-08T15:06:08;1.40;;;0.13;;
73699;SDS011;62005;50.082;8.988;2023-08-08T15:08:33;3.50;;;0.10;;
73699;SDS011;62005;50.082;8.988;2023-08-08T15:10:59;3.20;;;0.10;;